sensor_id;sensor_type;location;lat;lon;timestamp;P1;durP1;ratioP1;P2;durP2;ratioP2
46731;SDS011;32477;51.474;5.696;2023-08-31T00:02:12;5.63;;;3.47;;
46731;SDS011;32477;51.474;5.696;2023-08-31T00:04:38;5.70;;;3.70;;
46731;SDS011;32477;51.474;5.696;2023-08-31T00:07:07;9.35;;;4.63;;
46731;SDS011;32477;51.474;5.696;2023-08-31T00:09:32;11.77;;;4.20;;
46731;SDS011;32477;51.474;5.696;2023-08-31T00:12:00;6.63;;;3.95;;
46731;SDS011;32477;51.474;5.696;2023-08-31T00:14:27;8.65;;;4.50;;
46731;SDS011;32477;51.474;5.696;2023-08-31T00:16:52;10.23;;;4.63;;
46731;SDS011;32477;51.474;5.696;2023-08-31T00:19:18;8.18;;;5.18;;
46731;SDS011;32477;51.474;5.696;2023-08-31T00:21:44;7.88;;;4.85;;
46731;SDS011;32477;51.474;5.696;2023-08-31T00:24:10;5.75;;;4.47;;
46731;SDS011;32477;51.474;5.696;2023-08-31T00:26:36;14.48;;;4.88;;
46731;SDS011;32477;51.474;5.696;2023-08-31T00:29:05;11.35;;;5.22;;
46731;SDS011;32477;51.474;5.696;2023-08-31T00:31:39;7.47;;;4.83;;
46731;SDS011;32477;51.474;5.696;2023-08-31T00:34:04;10.25;;;4.93;;
46731;SDS011;32477;51.474;5.696;2023-08-31T00:36:31;10.70;;;5.45;;
46731;SDS011;32477;51.474;5.696;2023-08-31T00:38:58;11.02;;;5.72;;
46731;SDS011;32477;51.474;5.696;2023-08-31T00:41:27;11.02;;;5.90;;
46731;SDS011;32477;51.474;5.696;2023-08-31T00:43:53;10.73;;;6.10;;
46731;SDS011;32477;51.474;5.696;2023-08-31T00:46:18;10.40;;;6.80;;
46731;SDS011;32477;51.474;5.696;2023-08-31T00:48:45;10.98;;;6.03;;
46731;SDS011;32477;51.474;5.696;2023-08-31T00:51:10;9.25;;;6.10;;
46731;SDS011;32477;51.474;5.696;2023-08-31T00:53:36;9.90;;;6.30;;
46731;SDS011;32477;51.474;5.696;2023-08-31T00:56:02;12.38;;;6.25;;
46731;SDS011;32477;51.474;5.696;2023-08-31T00:58:28;16.15;;;6.65;;
46731;SDS011;32477;51.474;5.696;2023-08-31T01:01:01;13.32;;;7.18;;
46731;SDS011;32477;51.474;5.696;2023-08-31T01:03:55;11.85;;;6.32;;
46731;SDS011;32477;51.474;5.696;2023-08-31T01:06:41;19.02;;;7.70;;
46731;SDS011;32477;51.474;5.696;2023-08-31T01:12:05;12.77;;;7.10;;
46731;SDS011;32477;51.474;5.696;2023-08-31T01:14:38;13.00;;;6.95;;
46731;SDS011;32477;51.474;5.696;2023-08-31T01:17:12;19.05;;;8.02;;
46731;SDS011;32477;51.474;5.696;2023-08-31T01:19:47;15.13;;;7.70;;
46731;SDS011;32477;51.474;5.696;2023-08-31T01:22:51;10.98;;;7.45;;
46731;SDS011;32477;51.474;5.696;2023-08-31T01:25:28;13.32;;;7.15;;
46731;SDS011;32477;51.474;5.696;2023-08-31T01:27:55;13.10;;;7.90;;
46731;SDS011;32477;51.474;5.696;2023-08-31T01:30:21;13.25;;;7.80;;
46731;SDS011;32477;51.474;5.696;2023-08-31T01:32:47;15.95;;;9.00;;
46731;SDS011;32477;51.474;5.696;2023-08-31T01:35:14;13.70;;;8.35;;
46731;SDS011;32477;51.474;5.696;2023-08-31T01:37:51;14.20;;;8.23;;
46731;SDS011;32477;51.474;5.696;2023-08-31T01:43:04;15.95;;;8.40;;
46731;SDS011;32477;51.474;5.696;2023-08-31T01:45:32;16.60;;;9.23;;
46731;SDS011;32477;51.474;5.696;2023-08-31T01:48:00;13.82;;;8.85;;
46731;SDS011;32477;51.474;5.696;2023-08-31T01:50:26;17.30;;;9.45;;
46731;SDS011;32477;51.474;5.696;2023-08-31T01:52:51;17.05;;;9.82;;
46731;SDS011;32477;51.474;5.696;2023-08-31T01:55:21;18.40;;;9.82;;
46731;SDS011;32477;51.474;5.696;2023-08-31T01:57:49;16.40;;;9.65;;
46731;SDS011;32477;51.474;5.696;2023-08-31T02:00:17;15.48;;;9.93;;
46731;SDS011;32477;51.474;5.696;2023-08-31T02:02:43;22.58;;;11.25;;
46731;SDS011;32477;51.474;5.696;2023-08-31T02:05:09;25.05;;;11.65;;
46731;SDS011;32477;51.474;5.696;2023-08-31T02:07:35;22.83;;;11.02;;
46731;SDS011;32477;51.474;5.696;2023-08-31T02:10:01;22.73;;;10.10;;
46731;SDS011;32477;51.474;5.696;2023-08-31T02:12:27;21.63;;;12.45;;
46731;SDS011;32477;51.474;5.696;2023-08-31T02:14:53;25.60;;;12.65;;
46731;SDS011;32477;51.474;5.696;2023-08-31T02:17:18;22.92;;;11.55;;
46731;SDS011;32477;51.474;5.696;2023-08-31T02:19:44;26.92;;;11.35;;
46731;SDS011;32477;51.474;5.696;2023-08-31T02:22:10;22.42;;;12.13;;
46731;SDS011;32477;51.474;5.696;2023-08-31T02:24:35;19.05;;;10.95;;
46731;SDS011;32477;51.474;5.696;2023-08-31T02:27:01;23.42;;;12.82;;
46731;SDS011;32477;51.474;5.696;2023-08-31T02:29:27;21.65;;;12.30;;
46731;SDS011;32477;51.474;5.696;2023-08-31T02:31:53;21.60;;;11.90;;
46731;SDS011;32477;51.474;5.696;2023-08-31T02:34:18;24.00;;;13.95;;
46731;SDS011;32477;51.474;5.696;2023-08-31T02:36:44;19.95;;;12.10;;
46731;SDS011;32477;51.474;5.696;2023-08-31T02:39:10;24.23;;;12.25;;
46731;SDS011;32477;51.474;5.696;2023-08-31T02:41:36;22.30;;;11.75;;
46731;SDS011;32477;51.474;5.696;2023-08-31T02:44:01;22.08;;;13.73;;
46731;SDS011;32477;51.474;5.696;2023-08-31T02:46:27;27.92;;;12.32;;
46731;SDS011;32477;51.474;5.696;2023-08-31T02:48:53;25.52;;;12.82;;
46731;SDS011;32477;51.474;5.696;2023-08-31T02:51:19;21.98;;;12.52;;
46731;SDS011;32477;51.474;5.696;2023-08-31T02:53:44;24.55;;;12.88;;
46731;SDS011;32477;51.474;5.696;2023-08-31T02:56:10;26.25;;;11.65;;
46731;SDS011;32477;51.474;5.696;2023-08-31T02:58:36;28.73;;;12.45;;
46731;SDS011;32477;51.474;5.696;2023-08-31T03:01:09;19.08;;;11.88;;
46731;SDS011;32477;51.474;5.696;2023-08-31T03:03:36;20.98;;;12.05;;
46731;SDS011;32477;51.474;5.696;2023-08-31T03:06:03;24.65;;;12.23;;
46731;SDS011;32477;51.474;5.696;2023-08-31T03:08:30;20.95;;;12.07;;
46731;SDS011;32477;51.474;5.696;2023-08-31T03:10:56;20.63;;;12.15;;
46731;SDS011;32477;51.474;5.696;2023-08-31T03:13:23;26.42;;;12.73;;
46731;SDS011;32477;51.474;5.696;2023-08-31T03:15:48;21.65;;;12.98;;
46731;SDS011;32477;51.474;5.696;2023-08-31T03:18:14;22.75;;;12.57;;
46731;SDS011;32477;51.474;5.696;2023-08-31T03:20:39;27.63;;;13.45;;
46731;SDS011;32477;51.474;5.696;2023-08-31T03:23:05;28.10;;;13.02;;
46731;SDS011;32477;51.474;5.696;2023-08-31T03:25:30;28.40;;;13.85;;
46731;SDS011;32477;51.474;5.696;2023-08-31T03:27:56;21.33;;;12.02;;
46731;SDS011;32477;51.474;5.696;2023-08-31T03:30:22;27.55;;;13.82;;
46731;SDS011;32477;51.474;5.696;2023-08-31T03:32:47;28.70;;;13.85;;
46731;SDS011;32477;51.474;5.696;2023-08-31T03:35:13;20.90;;;12.88;;
46731;SDS011;32477;51.474;5.696;2023-08-31T03:37:39;21.33;;;13.48;;
46731;SDS011;32477;51.474;5.696;2023-08-31T03:40:04;21.88;;;13.85;;
46731;SDS011;32477;51.474;5.696;2023-08-31T03:42:31;24.88;;;13.98;;
46731;SDS011;32477;51.474;5.696;2023-08-31T03:44:58;30.77;;;14.15;;
46731;SDS011;32477;51.474;5.696;2023-08-31T03:47:24;23.10;;;13.75;;
46731;SDS011;32477;51.474;5.696;2023-08-31T03:49:50;22.92;;;12.40;;
46731;SDS011;32477;51.474;5.696;2023-08-31T03:52:15;26.15;;;14.50;;
46731;SDS011;32477;51.474;5.696;2023-08-31T03:54:41;31.65;;;14.23;;
46731;SDS011;32477;51.474;5.696;2023-08-31T03:57:07;28.42;;;15.05;;
46731;SDS011;32477;51.474;5.696;2023-08-31T03:59:32;27.10;;;15.30;;
46731;SDS011;32477;51.474;5.696;2023-08-31T04:01:58;25.25;;;14.52;;
46731;SDS011;32477;51.474;5.696;2023-08-31T04:04:24;23.50;;;14.75;;
46731;SDS011;32477;51.474;5.696;2023-08-31T04:06:50;31.80;;;15.00;;
46731;SDS011;32477;51.474;5.696;2023-08-31T04:09:15;28.80;;;15.23;;
46731;SDS011;32477;51.474;5.696;2023-08-31T04:11:42;28.10;;;15.00;;
46731;SDS011;32477;51.474;5.696;2023-08-31T04:14:07;24.48;;;14.57;;
46731;SDS011;32477;51.474;5.696;2023-08-31T04:16:33;27.27;;;14.65;;
46731;SDS011;32477;51.474;5.696;2023-08-31T04:18:59;24.48;;;14.65;;
46731;SDS011;32477;51.474;5.696;2023-08-31T04:21:24;31.20;;;14.98;;
46731;SDS011;32477;51.474;5.696;2023-08-31T04:23:50;27.45;;;13.88;;
46731;SDS011;32477;51.474;5.696;2023-08-31T04:26:15;34.75;;;13.73;;
46731;SDS011;32477;51.474;5.696;2023-08-31T04:28:42;27.35;;;14.63;;
46731;SDS011;32477;51.474;5.696;2023-08-31T04:31:08;39.05;;;14.88;;
46731;SDS011;32477;51.474;5.696;2023-08-31T04:33:34;24.65;;;14.27;;
46731;SDS011;32477;51.474;5.696;2023-08-31T04:36:00;27.25;;;14.82;;
46731;SDS011;32477;51.474;5.696;2023-08-31T04:38:26;25.77;;;13.60;;
46731;SDS011;32477;51.474;5.696;2023-08-31T04:40:52;30.10;;;14.07;;
46731;SDS011;32477;51.474;5.696;2023-08-31T04:43:17;34.58;;;14.85;;
46731;SDS011;32477;51.474;5.696;2023-08-31T04:45:43;24.65;;;13.25;;
46731;SDS011;32477;51.474;5.696;2023-08-31T04:48:09;30.42;;;14.25;;
46731;SDS011;32477;51.474;5.696;2023-08-31T04:50:35;32.55;;;15.23;;
46731;SDS011;32477;51.474;5.696;2023-08-31T04:53:00;37.17;;;14.43;;
46731;SDS011;32477;51.474;5.696;2023-08-31T04:55:26;30.25;;;14.45;;
46731;SDS011;32477;51.474;5.696;2023-08-31T04:57:52;27.63;;;14.23;;
46731;SDS011;32477;51.474;5.696;2023-08-31T05:00:18;33.22;;;13.27;;
46731;SDS011;32477;51.474;5.696;2023-08-31T05:02:44;29.80;;;13.95;;
46731;SDS011;32477;51.474;5.696;2023-08-31T05:05:10;25.55;;;14.10;;
46731;SDS011;32477;51.474;5.696;2023-08-31T05:07:35;24.23;;;13.75;;
46731;SDS011;32477;51.474;5.696;2023-08-31T05:10:02;27.48;;;13.95;;
46731;SDS011;32477;51.474;5.696;2023-08-31T05:12:28;28.25;;;13.57;;
46731;SDS011;32477;51.474;5.696;2023-08-31T05:14:54;24.60;;;12.88;;
46731;SDS011;32477;51.474;5.696;2023-08-31T05:17:19;27.67;;;14.82;;
46731;SDS011;32477;51.474;5.696;2023-08-31T05:19:46;24.52;;;13.25;;
46731;SDS011;32477;51.474;5.696;2023-08-31T05:22:12;29.63;;;14.23;;
46731;SDS011;32477;51.474;5.696;2023-08-31T05:24:37;28.63;;;13.27;;
46731;SDS011;32477;51.474;5.696;2023-08-31T05:27:03;28.48;;;13.82;;
46731;SDS011;32477;51.474;5.696;2023-08-31T05:29:29;22.08;;;12.93;;
46731;SDS011;32477;51.474;5.696;2023-08-31T05:31:55;30.42;;;14.20;;
46731;SDS011;32477;51.474;5.696;2023-08-31T05:34:21;25.48;;;13.48;;
46731;SDS011;32477;51.474;5.696;2023-08-31T05:36:49;26.08;;;13.63;;
46731;SDS011;32477;51.474;5.696;2023-08-31T05:39:15;30.77;;;13.07;;
46731;SDS011;32477;51.474;5.696;2023-08-31T05:41:42;31.65;;;13.68;;
46731;SDS011;32477;51.474;5.696;2023-08-31T05:44:09;20.92;;;12.05;;
46731;SDS011;32477;51.474;5.696;2023-08-31T05:46:35;28.00;;;12.52;;
46731;SDS011;32477;51.474;5.696;2023-08-31T05:49:03;24.83;;;11.63;;
46731;SDS011;32477;51.474;5.696;2023-08-31T05:51:29;23.58;;;11.45;;
46731;SDS011;32477;51.474;5.696;2023-08-31T05:53:54;20.15;;;10.80;;
46731;SDS011;32477;51.474;5.696;2023-08-31T05:56:33;24.23;;;11.27;;
46731;SDS011;32477;51.474;5.696;2023-08-31T05:58:59;21.05;;;11.77;;
46731;SDS011;32477;51.474;5.696;2023-08-31T06:01:24;28.75;;;12.02;;
46731;SDS011;32477;51.474;5.696;2023-08-31T06:03:50;22.50;;;12.00;;
46731;SDS011;32477;51.474;5.696;2023-08-31T06:06:16;25.38;;;12.38;;
46731;SDS011;32477;51.474;5.696;2023-08-31T06:08:41;28.08;;;14.32;;
46731;SDS011;32477;51.474;5.696;2023-08-31T06:11:08;33.83;;;15.00;;
46731;SDS011;32477;51.474;5.696;2023-08-31T06:13:34;24.48;;;12.82;;
46731;SDS011;32477;51.474;5.696;2023-08-31T06:15:59;15.95;;;10.43;;
46731;SDS011;32477;51.474;5.696;2023-08-31T06:18:25;11.98;;;8.07;;
46731;SDS011;32477;51.474;5.696;2023-08-31T06:20:51;10.55;;;7.00;;
46731;SDS011;32477;51.474;5.696;2023-08-31T06:23:16;8.80;;;5.95;;
46731;SDS011;32477;51.474;5.696;2023-08-31T06:25:42;9.68;;;6.47;;
46731;SDS011;32477;51.474;5.696;2023-08-31T06:28:10;8.18;;;4.85;;
46731;SDS011;32477;51.474;5.696;2023-08-31T06:30:37;7.30;;;4.70;;
46731;SDS011;32477;51.474;5.696;2023-08-31T06:33:03;8.05;;;5.05;;
46731;SDS011;32477;51.474;5.696;2023-08-31T06:35:29;8.10;;;5.22;;
46731;SDS011;32477;51.474;5.696;2023-08-31T06:37:54;9.38;;;4.43;;
46731;SDS011;32477;51.474;5.696;2023-08-31T06:40:21;6.25;;;4.18;;
46731;SDS011;32477;51.474;5.696;2023-08-31T06:42:46;11.88;;;4.32;;
46731;SDS011;32477;51.474;5.696;2023-08-31T06:45:12;7.63;;;3.85;;
46731;SDS011;32477;51.474;5.696;2023-08-31T06:47:38;9.38;;;4.90;;
46731;SDS011;32477;51.474;5.696;2023-08-31T06:50:03;7.88;;;4.20;;
46731;SDS011;32477;51.474;5.696;2023-08-31T06:52:29;14.88;;;5.70;;
46731;SDS011;32477;51.474;5.696;2023-08-31T06:54:55;13.93;;;4.07;;
46731;SDS011;32477;51.474;5.696;2023-08-31T06:57:25;10.52;;;4.78;;
46731;SDS011;32477;51.474;5.696;2023-08-31T06:59:51;8.10;;;4.32;;
46731;SDS011;32477;51.474;5.696;2023-08-31T07:02:17;5.93;;;3.80;;
46731;SDS011;32477;51.474;5.696;2023-08-31T07:04:44;11.43;;;4.63;;
46731;SDS011;32477;51.474;5.696;2023-08-31T07:07:10;21.30;;;5.30;;
46731;SDS011;32477;51.474;5.696;2023-08-31T07:09:38;9.60;;;3.90;;
46731;SDS011;32477;51.474;5.696;2023-08-31T07:12:06;9.98;;;3.90;;
46731;SDS011;32477;51.474;5.696;2023-08-31T07:14:32;13.00;;;3.95;;
46731;SDS011;32477;51.474;5.696;2023-08-31T07:16:58;9.88;;;4.10;;
46731;SDS011;32477;51.474;5.696;2023-08-31T07:19:23;6.47;;;3.33;;
46731;SDS011;32477;51.474;5.696;2023-08-31T07:21:49;6.80;;;3.83;;
46731;SDS011;32477;51.474;5.696;2023-08-31T07:24:14;13.70;;;3.60;;
46731;SDS011;32477;51.474;5.696;2023-08-31T07:26:40;6.55;;;3.65;;
46731;SDS011;32477;51.474;5.696;2023-08-31T07:29:05;8.68;;;4.03;;
46731;SDS011;32477;51.474;5.696;2023-08-31T07:31:31;8.23;;;3.80;;
46731;SDS011;32477;51.474;5.696;2023-08-31T07:33:57;12.80;;;4.07;;
46731;SDS011;32477;51.474;5.696;2023-08-31T07:36:24;7.45;;;3.63;;
46731;SDS011;32477;51.474;5.696;2023-08-31T07:38:49;8.32;;;3.22;;
46731;SDS011;32477;51.474;5.696;2023-08-31T07:41:15;8.15;;;3.70;;
46731;SDS011;32477;51.474;5.696;2023-08-31T07:43:41;5.57;;;3.70;;
46731;SDS011;32477;51.474;5.696;2023-08-31T07:46:06;11.55;;;3.80;;
46731;SDS011;32477;51.474;5.696;2023-08-31T07:48:32;10.55;;;3.45;;
46731;SDS011;32477;51.474;5.696;2023-08-31T07:50:57;6.53;;;3.70;;
46731;SDS011;32477;51.474;5.696;2023-08-31T07:53:23;11.20;;;4.30;;
46731;SDS011;32477;51.474;5.696;2023-08-31T07:55:55;7.68;;;3.40;;
46731;SDS011;32477;51.474;5.696;2023-08-31T07:58:21;11.05;;;3.95;;
46731;SDS011;32477;51.474;5.696;2023-08-31T08:00:48;13.13;;;3.88;;
46731;SDS011;32477;51.474;5.696;2023-08-31T08:03:14;7.85;;;3.47;;
46731;SDS011;32477;51.474;5.696;2023-08-31T08:05:39;10.13;;;3.08;;
46731;SDS011;32477;51.474;5.696;2023-08-31T08:08:06;6.60;;;3.78;;
46731;SDS011;32477;51.474;5.696;2023-08-31T08:10:32;8.05;;;3.03;;
46731;SDS011;32477;51.474;5.696;2023-08-31T08:12:57;7.57;;;2.92;;
46731;SDS011;32477;51.474;5.696;2023-08-31T08:15:23;7.00;;;3.03;;
46731;SDS011;32477;51.474;5.696;2023-08-31T08:17:49;13.50;;;3.50;;
46731;SDS011;32477;51.474;5.696;2023-08-31T08:20:15;17.77;;;3.88;;
46731;SDS011;32477;51.474;5.696;2023-08-31T08:22:40;15.73;;;4.50;;
46731;SDS011;32477;51.474;5.696;2023-08-31T08:25:06;8.48;;;3.63;;
46731;SDS011;32477;51.474;5.696;2023-08-31T08:27:32;6.60;;;2.90;;
46731;SDS011;32477;51.474;5.696;2023-08-31T08:29:58;8.48;;;2.95;;
46731;SDS011;32477;51.474;5.696;2023-08-31T08:32:24;10.27;;;2.83;;
46731;SDS011;32477;51.474;5.696;2023-08-31T08:34:50;6.68;;;3.05;;
46731;SDS011;32477;51.474;5.696;2023-08-31T08:37:16;8.02;;;2.80;;
46731;SDS011;32477;51.474;5.696;2023-08-31T08:39:41;12.90;;;2.78;;
46731;SDS011;32477;51.474;5.696;2023-08-31T08:42:07;7.57;;;2.97;;
46731;SDS011;32477;51.474;5.696;2023-08-31T08:44:36;9.10;;;3.25;;
46731;SDS011;32477;51.474;5.696;2023-08-31T08:47:02;11.65;;;3.75;;
46731;SDS011;32477;51.474;5.696;2023-08-31T08:49:30;7.03;;;3.15;;
46731;SDS011;32477;51.474;5.696;2023-08-31T08:51:58;9.30;;;3.40;;
46731;SDS011;32477;51.474;5.696;2023-08-31T08:54:24;8.80;;;3.53;;
46731;SDS011;32477;51.474;5.696;2023-08-31T08:56:50;9.95;;;3.55;;
46731;SDS011;32477;51.474;5.696;2023-08-31T08:59:16;8.50;;;3.28;;
46731;SDS011;32477;51.474;5.696;2023-08-31T09:01:41;8.15;;;3.53;;
46731;SDS011;32477;51.474;5.696;2023-08-31T09:04:08;9.02;;;3.58;;
46731;SDS011;32477;51.474;5.696;2023-08-31T09:06:34;9.27;;;4.13;;
46731;SDS011;32477;51.474;5.696;2023-08-31T09:09:00;8.60;;;4.45;;
46731;SDS011;32477;51.474;5.696;2023-08-31T09:11:26;11.75;;;3.97;;
46731;SDS011;32477;51.474;5.696;2023-08-31T09:13:52;10.23;;;3.95;;
46731;SDS011;32477;51.474;5.696;2023-08-31T09:16:28;10.10;;;4.43;;
46731;SDS011;32477;51.474;5.696;2023-08-31T09:18:55;9.23;;;3.55;;
46731;SDS011;32477;51.474;5.696;2023-08-31T09:21:21;8.57;;;3.40;;
46731;SDS011;32477;51.474;5.696;2023-08-31T09:23:55;7.22;;;3.00;;
46731;SDS011;32477;51.474;5.696;2023-08-31T09:26:22;9.02;;;4.00;;
46731;SDS011;32477;51.474;5.696;2023-08-31T09:28:48;6.72;;;3.20;;
46731;SDS011;32477;51.474;5.696;2023-08-31T09:31:14;10.20;;;3.70;;
46731;SDS011;32477;51.474;5.696;2023-08-31T09:33:40;12.85;;;3.65;;
46731;SDS011;32477;51.474;5.696;2023-08-31T09:36:18;8.05;;;3.40;;
46731;SDS011;32477;51.474;5.696;2023-08-31T09:38:45;15.82;;;3.55;;
46731;SDS011;32477;51.474;5.696;2023-08-31T09:41:11;6.82;;;2.72;;
46731;SDS011;32477;51.474;5.696;2023-08-31T09:43:36;7.60;;;2.88;;
46731;SDS011;32477;51.474;5.696;2023-08-31T09:46:03;6.75;;;2.75;;
46731;SDS011;32477;51.474;5.696;2023-08-31T09:48:29;10.48;;;2.70;;
46731;SDS011;32477;51.474;5.696;2023-08-31T09:50:55;10.68;;;7.13;;
46731;SDS011;32477;51.474;5.696;2023-08-31T09:53:23;11.00;;;5.25;;
46731;SDS011;32477;51.474;5.696;2023-08-31T09:55:50;26.95;;;5.40;;
46731;SDS011;32477;51.474;5.696;2023-08-31T09:58:20;7.43;;;3.47;;
46731;SDS011;32477;51.474;5.696;2023-08-31T10:00:46;8.32;;;2.95;;
46731;SDS011;32477;51.474;5.696;2023-08-31T10:03:14;5.15;;;2.75;;
46731;SDS011;32477;51.474;5.696;2023-08-31T10:05:40;7.65;;;3.15;;
46731;SDS011;32477;51.474;5.696;2023-08-31T10:08:11;6.78;;;2.97;;
46731;SDS011;32477;51.474;5.696;2023-08-31T10:10:37;9.68;;;3.08;;
46731;SDS011;32477;51.474;5.696;2023-08-31T10:13:06;6.63;;;3.03;;
46731;SDS011;32477;51.474;5.696;2023-08-31T10:15:33;7.28;;;3.20;;
46731;SDS011;32477;51.474;5.696;2023-08-31T10:18:01;7.85;;;2.95;;
46731;SDS011;32477;51.474;5.696;2023-08-31T10:20:30;10.98;;;3.20;;
46731;SDS011;32477;51.474;5.696;2023-08-31T10:22:57;7.25;;;2.92;;
46731;SDS011;32477;51.474;5.696;2023-08-31T10:25:24;12.90;;;3.38;;
46731;SDS011;32477;51.474;5.696;2023-08-31T10:27:51;8.27;;;2.90;;
46731;SDS011;32477;51.474;5.696;2023-08-31T10:30:27;9.65;;;2.55;;
46731;SDS011;32477;51.474;5.696;2023-08-31T10:35:40;7.85;;;2.22;;
46731;SDS011;32477;51.474;5.696;2023-08-31T10:38:15;5.95;;;2.25;;
46731;SDS011;32477;51.474;5.696;2023-08-31T10:40:41;6.50;;;2.05;;
46731;SDS011;32477;51.474;5.696;2023-08-31T10:43:24;5.43;;;2.10;;
46731;SDS011;32477;51.474;5.696;2023-08-31T10:45:49;16.58;;;2.35;;
46731;SDS011;32477;51.474;5.696;2023-08-31T10:48:16;5.32;;;2.00;;
46731;SDS011;32477;51.474;5.696;2023-08-31T10:50:43;7.35;;;1.95;;
46731;SDS011;32477;51.474;5.696;2023-08-31T10:53:12;5.03;;;1.88;;
46731;SDS011;32477;51.474;5.696;2023-08-31T10:55:53;8.40;;;2.00;;
46731;SDS011;32477;51.474;5.696;2023-08-31T10:58:19;4.68;;;2.10;;
46731;SDS011;32477;51.474;5.696;2023-08-31T11:00:51;5.13;;;2.08;;
46731;SDS011;32477;51.474;5.696;2023-08-31T11:03:18;15.93;;;2.20;;
46731;SDS011;32477;51.474;5.696;2023-08-31T11:05:50;7.60;;;2.67;;
46731;SDS011;32477;51.474;5.696;2023-08-31T11:08:20;4.13;;;2.28;;
46731;SDS011;32477;51.474;5.696;2023-08-31T11:10:48;7.43;;;2.30;;
46731;SDS011;32477;51.474;5.696;2023-08-31T11:13:21;5.68;;;1.92;;
46731;SDS011;32477;51.474;5.696;2023-08-31T11:15:48;3.38;;;1.75;;
46731;SDS011;32477;51.474;5.696;2023-08-31T11:18:14;5.82;;;2.00;;
46731;SDS011;32477;51.474;5.696;2023-08-31T11:20:42;9.70;;;2.45;;
46731;SDS011;32477;51.474;5.696;2023-08-31T11:23:09;6.68;;;1.85;;
46731;SDS011;32477;51.474;5.696;2023-08-31T11:25:35;14.32;;;2.25;;
46731;SDS011;32477;51.474;5.696;2023-08-31T11:28:02;4.80;;;2.10;;
46731;SDS011;32477;51.474;5.696;2023-08-31T11:30:30;4.57;;;1.75;;
46731;SDS011;32477;51.474;5.696;2023-08-31T11:32:57;7.55;;;1.88;;
46731;SDS011;32477;51.474;5.696;2023-08-31T11:35:30;6.70;;;1.70;;
46731;SDS011;32477;51.474;5.696;2023-08-31T11:37:58;5.78;;;1.75;;
46731;SDS011;32477;51.474;5.696;2023-08-31T11:40:25;8.68;;;1.98;;
46731;SDS011;32477;51.474;5.696;2023-08-31T11:42:52;4.90;;;2.88;;
46731;SDS011;32477;51.474;5.696;2023-08-31T11:45:18;7.60;;;1.90;;
46731;SDS011;32477;51.474;5.696;2023-08-31T11:47:44;8.07;;;2.55;;
46731;SDS011;32477;51.474;5.696;2023-08-31T11:50:10;14.55;;;5.22;;
46731;SDS011;32477;51.474;5.696;2023-08-31T11:52:38;6.85;;;2.85;;
46731;SDS011;32477;51.474;5.696;2023-08-31T11:55:10;6.05;;;2.20;;
46731;SDS011;32477;51.474;5.696;2023-08-31T11:57:37;4.50;;;1.75;;
46731;SDS011;32477;51.474;5.696;2023-08-31T12:00:02;9.30;;;1.90;;
46731;SDS011;32477;51.474;5.696;2023-08-31T12:02:37;4.72;;;2.10;;
46731;SDS011;32477;51.474;5.696;2023-08-31T12:05:03;6.32;;;2.15;;
46731;SDS011;32477;51.474;5.696;2023-08-31T12:07:30;4.72;;;2.10;;
46731;SDS011;32477;51.474;5.696;2023-08-31T12:10:01;13.75;;;2.45;;
46731;SDS011;32477;51.474;5.696;2023-08-31T12:12:28;8.07;;;2.03;;
46731;SDS011;32477;51.474;5.696;2023-08-31T12:14:57;8.25;;;2.40;;
46731;SDS011;32477;51.474;5.696;2023-08-31T12:17:26;7.50;;;2.15;;
46731;SDS011;32477;51.474;5.696;2023-08-31T12:19:51;6.28;;;2.15;;
46731;SDS011;32477;51.474;5.696;2023-08-31T12:22:17;8.40;;;1.73;;
46731;SDS011;32477;51.474;5.696;2023-08-31T12:24:42;7.03;;;2.33;;
46731;SDS011;32477;51.474;5.696;2023-08-31T12:27:08;8.80;;;1.83;;
46731;SDS011;32477;51.474;5.696;2023-08-31T12:29:34;5.95;;;2.20;;
46731;SDS011;32477;51.474;5.696;2023-08-31T12:32:00;7.00;;;3.05;;
46731;SDS011;32477;51.474;5.696;2023-08-31T12:34:26;5.30;;;2.55;;
46731;SDS011;32477;51.474;5.696;2023-08-31T12:36:52;10.95;;;2.40;;
46731;SDS011;32477;51.474;5.696;2023-08-31T12:39:17;5.72;;;2.10;;
46731;SDS011;32477;51.474;5.696;2023-08-31T12:41:43;5.53;;;1.90;;
46731;SDS011;32477;51.474;5.696;2023-08-31T12:44:09;10.27;;;2.47;;
46731;SDS011;32477;51.474;5.696;2023-08-31T12:46:34;6.97;;;2.22;;
46731;SDS011;32477;51.474;5.696;2023-08-31T12:49:01;5.53;;;2.63;;
46731;SDS011;32477;51.474;5.696;2023-08-31T12:51:28;4.13;;;2.63;;
46731;SDS011;32477;51.474;5.696;2023-08-31T12:53:57;4.65;;;2.90;;
46731;SDS011;32477;51.474;5.696;2023-08-31T12:56:23;11.35;;;3.80;;
46731;SDS011;32477;51.474;5.696;2023-08-31T12:58:49;7.82;;;4.13;;
46731;SDS011;32477;51.474;5.696;2023-08-31T13:01:16;8.80;;;3.67;;
46731;SDS011;32477;51.474;5.696;2023-08-31T13:03:42;7.32;;;3.75;;
46731;SDS011;32477;51.474;5.696;2023-08-31T13:06:07;5.43;;;4.05;;
46731;SDS011;32477;51.474;5.696;2023-08-31T13:08:33;10.05;;;4.38;;
46731;SDS011;32477;51.474;5.696;2023-08-31T13:10:59;13.63;;;6.07;;
46731;SDS011;32477;51.474;5.696;2023-08-31T13:13:25;17.42;;;10.32;;
46731;SDS011;32477;51.474;5.696;2023-08-31T13:15:51;14.93;;;6.47;;
46731;SDS011;32477;51.474;5.696;2023-08-31T13:18:17;10.43;;;6.30;;
46731;SDS011;32477;51.474;5.696;2023-08-31T13:20:49;10.43;;;6.15;;
46731;SDS011;32477;51.474;5.696;2023-08-31T13:23:16;12.05;;;6.97;;
46731;SDS011;32477;51.474;5.696;2023-08-31T13:25:42;16.38;;;7.15;;
46731;SDS011;32477;51.474;5.696;2023-08-31T13:28:08;12.52;;;6.00;;
46731;SDS011;32477;51.474;5.696;2023-08-31T13:30:34;12.68;;;7.03;;
46731;SDS011;32477;51.474;5.696;2023-08-31T13:33:00;14.32;;;6.43;;
46731;SDS011;32477;51.474;5.696;2023-08-31T13:35:25;12.27;;;5.75;;
46731;SDS011;32477;51.474;5.696;2023-08-31T13:37:52;13.13;;;6.30;;
46731;SDS011;32477;51.474;5.696;2023-08-31T13:40:17;11.15;;;6.43;;
46731;SDS011;32477;51.474;5.696;2023-08-31T13:42:53;11.10;;;6.30;;
46731;SDS011;32477;51.474;5.696;2023-08-31T13:45:22;11.20;;;6.57;;
46731;SDS011;32477;51.474;5.696;2023-08-31T13:47:47;17.90;;;7.75;;
46731;SDS011;32477;51.474;5.696;2023-08-31T13:50:14;11.38;;;7.60;;
46731;SDS011;32477;51.474;5.696;2023-08-31T13:52:40;19.63;;;8.18;;
46731;SDS011;32477;51.474;5.696;2023-08-31T13:55:06;16.27;;;7.90;;
46731;SDS011;32477;51.474;5.696;2023-08-31T13:57:32;15.73;;;8.48;;
46731;SDS011;32477;51.474;5.696;2023-08-31T13:59:58;14.57;;;8.85;;
46731;SDS011;32477;51.474;5.696;2023-08-31T14:02:25;14.82;;;8.55;;
46731;SDS011;32477;51.474;5.696;2023-08-31T14:04:51;14.70;;;9.65;;
46731;SDS011;32477;51.474;5.696;2023-08-31T14:07:17;14.65;;;8.75;;
46731;SDS011;32477;51.474;5.696;2023-08-31T14:09:43;16.15;;;9.43;;
46731;SDS011;32477;51.474;5.696;2023-08-31T14:12:09;16.15;;;8.45;;
46731;SDS011;32477;51.474;5.696;2023-08-31T14:14:34;11.35;;;6.93;;
46731;SDS011;32477;51.474;5.696;2023-08-31T14:17:00;10.25;;;6.03;;
46731;SDS011;32477;51.474;5.696;2023-08-31T14:19:26;10.70;;;5.75;;
46731;SDS011;32477;51.474;5.696;2023-08-31T14:21:52;11.13;;;5.32;;
46731;SDS011;32477;51.474;5.696;2023-08-31T14:24:18;7.53;;;4.78;;
46731;SDS011;32477;51.474;5.696;2023-08-31T14:26:44;12.48;;;4.75;;
46731;SDS011;32477;51.474;5.696;2023-08-31T14:29:10;6.90;;;4.68;;
46731;SDS011;32477;51.474;5.696;2023-08-31T14:31:36;6.90;;;4.15;;
46731;SDS011;32477;51.474;5.696;2023-08-31T14:34:02;13.52;;;5.80;;
46731;SDS011;32477;51.474;5.696;2023-08-31T14:36:27;9.23;;;4.55;;
46731;SDS011;32477;51.474;5.696;2023-08-31T14:38:53;8.50;;;4.72;;
46731;SDS011;32477;51.474;5.696;2023-08-31T14:41:19;8.32;;;3.72;;
46731;SDS011;32477;51.474;5.696;2023-08-31T14:43:44;5.90;;;3.20;;